Главная страница
METAR-TAF:

METAR-TAF

Аэропорты :

Триполи, Ливия

широта: 32-54N, долгота: 13-17E, высота над уровнем моря: 11 м

METAR: отсутствует

Время: 05:45 (03:45 UTC)

Прогноз

Эта сводка был подготовлена 22 часа и 45 минут назад, в 05:00 UTC
Прогноз действительный с 08-го 06 UTC до 09-го 06 UTC
Ветер 2 Узел переменных направлений
Видимость: 8000 м
Отдельные облака на высоте 3000 фута

TAF: HLLM 080500Z 0806/0906 VRB02KT 8000 SCT030 BECM 0810/0812 06010KT BECM 0821/0832 VRB02KT

Метеонаблюдения и прогнозы для более 4000 аэропортов (сводки METAR и TAF).

Имеющиеся станции представлены на карте желтыми и красными точками.

Чтобы увидеть название станции, наведите на нее мышь.

Затем щелкните, чтобы увидеть метеонаблюдения и метеопрогнозы.

Управление картой: чтобы увеличить масштаб, щелкните зеленые кнопки с черным крестиком; чтобы уменьшить масштаб, щелкните зеленую кнопку с тире; для просмотра соседних карт щелкайте зеленые стрелки.


METAR-TAF: